createdAt,value
2017-08-17T00:00:57.398Z,19.10
2017-08-17T00:03:25.731Z,19.10
2017-08-17T00:05:54.564Z,19.10
2017-08-17T00:08:22.895Z,19.10
2017-08-17T00:10:51.197Z,19.00
2017-08-17T00:13:19.544Z,18.90
2017-08-17T00:15:47.787Z,18.90
2017-08-17T00:18:16.051Z,18.90
2017-08-17T00:20:44.580Z,18.80
2017-08-17T00:23:13.195Z,18.80
2017-08-17T00:25:41.514Z,18.80
2017-08-17T00:28:09.877Z,18.80
2017-08-17T00:30:38.172Z,18.80
2017-08-17T00:33:07.055Z,18.80
2017-08-17T00:35:35.479Z,18.80
2017-08-17T00:38:03.752Z,18.70
2017-08-17T00:40:32.099Z,18.80
2017-08-17T00:43:00.352Z,18.80
2017-08-17T00:45:28.960Z,18.70
2017-08-17T00:47:57.350Z,18.80
2017-08-17T00:50:25.603Z,18.70
2017-08-17T00:52:53.925Z,18.70
2017-08-17T00:55:22.255Z,18.70
2017-08-17T00:57:50.504Z,18.70
2017-08-17T01:00:19.248Z,18.60
2017-08-17T01:02:47.566Z,18.60
2017-08-17T01:05:15.813Z,18.60
2017-08-17T01:07:44.095Z,18.50
2017-08-17T01:10:12.938Z,18.50
2017-08-17T01:12:41.256Z,18.50
2017-08-17T01:15:09.512Z,18.50
2017-08-17T01:17:37.795Z,18.40
2017-08-17T01:20:06.092Z,18.40
2017-08-17T01:22:35.597Z,18.20
2017-08-17T01:25:03.943Z,18.30
2017-08-17T01:27:32.289Z,18.30
2017-08-17T01:30:01.379Z,18.30
2017-08-17T01:32:29.629Z,18.30
2017-08-17T01:34:57.936Z,18.30
2017-08-17T01:37:26.213Z,18.30
2017-08-17T01:39:54.498Z,18.30
2017-08-17T01:42:22.996Z,18.30
2017-08-17T01:44:51.294Z,18.30
2017-08-17T01:47:32.410Z,18.30
2017-08-17T01:50:00.815Z,18.20
2017-08-17T01:52:29.968Z,18.20
2017-08-17T01:54:58.383Z,18.20
2017-08-17T01:57:26.628Z,18.10
2017-08-17T01:59:54.909Z,18.00
2017-08-17T02:02:23.325Z,18.10
2017-08-17T02:04:51.598Z,18.10
2017-08-17T02:07:19.892Z,18.10
2017-08-17T02:09:48.175Z,18.00
2017-08-17T02:12:16.524Z,18.10
2017-08-17T02:14:44.956Z,18.10
2017-08-17T02:17:13.417Z,18.10
2017-08-17T02:19:41.668Z,18.10
2017-08-17T02:22:09.928Z,18.10
2017-08-17T02:24:38.185Z,18.00
2017-08-17T02:27:06.512Z,18.00
2017-08-17T02:29:34.874Z,18.00
2017-08-17T02:32:03.122Z,18.00
2017-08-17T02:34:31.400Z,18.00
2017-08-17T02:36:59.872Z,18.00
2017-08-17T02:39:28.161Z,17.90
2017-08-17T02:41:56.389Z,18.00
2017-08-17T02:44:24.831Z,17.90
2017-08-17T02:46:53.106Z,17.90
2017-08-17T02:49:21.367Z,17.90
2017-08-17T02:51:49.733Z,17.90
2017-08-17T02:54:18.105Z,17.80
2017-08-17T02:56:46.536Z,17.80
2017-08-17T02:59:14.799Z,17.80
2017-08-17T03:01:43.327Z,17.80
2017-08-17T03:04:11.681Z,17.80
2017-08-17T03:06:39.989Z,17.80
2017-08-17T03:09:08.235Z,17.80
2017-08-17T03:11:36.965Z,17.70
2017-08-17T03:14:05.340Z,17.80
2017-08-17T03:16:33.861Z,17.80
2017-08-17T03:19:02.125Z,17.80
2017-08-17T03:21:30.521Z,17.80
2017-08-17T03:23:59.150Z,17.80
2017-08-17T03:26:27.824Z,17.80
2017-08-17T03:28:56.221Z,17.90
2017-08-17T03:31:24.859Z,17.80
2017-08-17T03:33:53.221Z,17.80
2017-08-17T03:36:21.504Z,17.70
2017-08-17T03:38:49.916Z,17.60
2017-08-17T03:41:18.313Z,17.60
2017-08-17T03:43:46.577Z,17.60
2017-08-17T03:46:14.962Z,17.60
2017-08-17T03:48:43.199Z,17.60
2017-08-17T03:51:11.495Z,17.60
2017-08-17T03:53:39.888Z,17.60
2017-08-17T03:56:08.199Z,17.60
2017-08-17T03:58:37.013Z,17.50
2017-08-17T04:01:05.296Z,17.50
2017-08-17T04:03:33.565Z,17.40
2017-08-17T04:06:02.034Z,17.40
2017-08-17T04:08:30.299Z,17.40
2017-08-17T04:10:58.613Z,17.40
2017-08-17T04:13:26.989Z,17.30
2017-08-17T04:15:55.799Z,17.40
2017-08-17T04:18:24.140Z,17.50
2017-08-17T04:20:52.388Z,17.50
2017-08-17T04:23:20.799Z,17.60
2017-08-17T04:25:49.297Z,17.60
2017-08-17T04:28:17.607Z,17.70
2017-08-17T04:30:45.882Z,17.70
2017-08-17T04:33:14.240Z,17.80
2017-08-17T04:35:42.611Z,17.80
2017-08-17T04:38:11.131Z,17.90
2017-08-17T04:40:39.695Z,18.10
2017-08-17T04:43:08.156Z,18.20
2017-08-17T04:45:36.565Z,18.20
2017-08-17T04:48:05.337Z,18.30
2017-08-17T04:50:33.731Z,18.30
2017-08-17T04:53:02.075Z,18.40
2017-08-17T04:55:31.184Z,18.40
2017-08-17T04:58:17.726Z,18.40
2017-08-17T05:00:46.051Z,18.40
2017-08-17T05:03:14.323Z,18.40
2017-08-17T05:05:42.752Z,18.40
2017-08-17T05:08:11.432Z,18.50
2017-08-17T05:10:39.708Z,18.50
2017-08-17T05:13:07.967Z,18.40
2017-08-17T05:15:36.409Z,18.40
2017-08-17T05:18:05.002Z,18.40
2017-08-17T05:20:33.266Z,18.40
2017-08-17T05:23:01.552Z,18.50
2017-08-17T05:25:29.875Z,18.50
2017-08-17T05:27:58.265Z,18.60
2017-08-17T05:30:26.618Z,18.80
2017-08-17T05:32:54.934Z,18.90
2017-08-17T05:35:24.592Z,19.10
2017-08-17T05:37:53.447Z,19.30
2017-08-17T05:43:01.795Z,19.50
2017-08-17T05:45:31.546Z,19.70
2017-08-17T05:47:59.863Z,19.70
2017-08-17T05:50:32.396Z,20.00
2017-08-17T05:53:00.816Z,20.00
2017-08-17T05:55:29.492Z,20.10
2017-08-17T05:57:58.773Z,20.20
2017-08-17T06:00:27.245Z,20.40
2017-08-17T06:02:55.656Z,20.50
2017-08-17T06:05:25.438Z,20.70
2017-08-17T06:07:53.863Z,20.70
2017-08-17T06:10:22.741Z,20.80
2017-08-17T06:12:51.495Z,20.90
2017-08-17T06:15:20.332Z,21.00
2017-08-17T06:20:21.870Z,21.10
2017-08-17T06:22:50.289Z,21.10
2017-08-17T06:25:18.630Z,21.30
2017-08-17T06:27:47.009Z,21.40
2017-08-17T06:30:15.780Z,21.50
2017-08-17T06:32:44.398Z,21.50
2017-08-17T06:35:15.589Z,21.40
2017-08-17T06:37:47.037Z,21.50
2017-08-17T06:40:15.379Z,21.40
2017-08-17T06:42:43.809Z,21.40
2017-08-17T06:45:12.223Z,21.90
2017-08-17T06:50:13.207Z,22.00
2017-08-17T06:52:41.704Z,22.10
2017-08-17T06:55:10.660Z,22.10
2017-08-17T06:57:38.984Z,22.20
2017-08-17T07:00:07.205Z,22.10
2017-08-17T07:02:35.505Z,22.20
2017-08-17T07:05:04.097Z,22.40
2017-08-17T07:07:32.551Z,22.30
2017-08-17T07:10:00.841Z,22.10
2017-08-17T07:12:29.124Z,22.30
2017-08-17T07:14:57.534Z,22.40
2017-08-17T07:17:25.893Z,22.80
2017-08-17T07:19:54.403Z,23.20
2017-08-17T07:22:22.719Z,23.50
2017-08-17T07:24:51.131Z,23.70
2017-08-17T07:27:19.559Z,23.70
2017-08-17T07:29:48.194Z,23.50
2017-08-17T07:32:16.540Z,23.50
2017-08-17T07:34:44.852Z,23.40
2017-08-17T07:37:13.174Z,23.40
2017-08-17T07:39:41.460Z,23.30
2017-08-17T07:42:09.727Z,23.20
2017-08-17T07:44:38.398Z,23.40
2017-08-17T07:47:06.734Z,23.40
2017-08-17T07:49:34.981Z,23.90
2017-08-17T07:52:03.239Z,24.00
2017-08-17T07:54:31.628Z,23.80
2017-08-17T07:56:59.889Z,23.70
2017-08-17T07:59:28.164Z,23.80
2017-08-17T08:01:57.359Z,23.80
2017-08-17T08:04:25.761Z,23.80
2017-08-17T08:06:54.239Z,23.90
2017-08-17T08:09:23.856Z,23.80
2017-08-17T08:11:52.367Z,23.70
2017-08-17T08:14:20.630Z,23.60
2017-08-17T08:16:48.926Z,23.70
2017-08-17T08:19:17.165Z,23.80
2017-08-17T08:21:45.426Z,23.80
2017-08-17T08:24:13.992Z,23.80
2017-08-17T08:26:42.239Z,23.80
2017-08-17T08:29:10.558Z,23.70
2017-08-17T08:31:39.248Z,23.90
2017-08-17T08:34:07.894Z,23.90
2017-08-17T08:36:36.235Z,23.90
2017-08-17T08:39:04.563Z,24.10
2017-08-17T08:41:32.960Z,24.30
2017-08-17T08:44:01.297Z,24.60
2017-08-17T08:46:29.604Z,24.80
2017-08-17T08:48:58.116Z,24.90
2017-08-17T08:51:26.609Z,24.90
2017-08-17T08:53:54.852Z,24.80
2017-08-17T08:56:23.249Z,24.90
2017-08-17T08:58:51.683Z,25.10
2017-08-17T09:01:20.048Z,25.00
2017-08-17T09:03:48.415Z,25.30
2017-08-17T09:06:16.829Z,25.60
2017-08-17T09:08:45.507Z,25.80
2017-08-17T09:11:13.750Z,25.80
2017-08-17T09:13:41.998Z,25.90
2017-08-17T09:16:10.319Z,25.90
2017-08-17T09:18:38.576Z,25.80
2017-08-17T09:21:06.894Z,25.50
2017-08-17T09:23:35.166Z,25.10
2017-08-17T09:26:03.405Z,25.10
2017-08-17T09:28:31.720Z,25.20
2017-08-17T09:31:00.855Z,25.00
2017-08-17T09:33:29.554Z,25.10
2017-08-17T09:35:58.194Z,25.50
2017-08-17T09:38:26.869Z,26.00
2017-08-17T09:40:55.666Z,26.30
2017-08-17T09:43:24.337Z,26.30
2017-08-17T09:45:53.208Z,26.40
2017-08-17T09:48:21.611Z,26.60
2017-08-17T09:50:50.204Z,26.50
2017-08-17T09:53:18.580Z,26.60
2017-08-17T09:55:46.825Z,26.50
2017-08-17T09:58:15.219Z,25.90
2017-08-17T10:00:43.840Z,25.90
2017-08-17T10:03:12.119Z,26.10
2017-08-17T10:05:40.647Z,26.10
2017-08-17T10:08:08.907Z,26.10
2017-08-17T10:10:37.871Z,26.40
2017-08-17T10:13:06.815Z,26.20
2017-08-17T10:15:35.234Z,26.20
2017-08-17T10:18:03.545Z,26.00
2017-08-17T10:20:31.975Z,26.50
2017-08-17T10:23:00.341Z,26.60
2017-08-17T10:25:28.823Z,26.40
2017-08-17T10:27:57.164Z,26.60
2017-08-17T10:30:25.483Z,26.60
2017-08-17T10:32:54.268Z,26.60
2017-08-17T10:35:22.942Z,26.70
2017-08-17T10:37:51.239Z,26.70
2017-08-17T10:40:19.750Z,26.90
2017-08-17T10:42:48.274Z,27.40
2017-08-17T10:45:16.830Z,27.70
2017-08-17T10:47:45.255Z,28.10
2017-08-17T10:50:13.929Z,28.50
2017-08-17T10:52:42.206Z,28.50
2017-08-17T10:55:10.444Z,28.40
2017-08-17T10:57:38.874Z,28.40
2017-08-17T11:00:07.163Z,28.20
2017-08-17T11:02:35.780Z,28.60
2017-08-17T11:05:04.061Z,28.90
2017-08-17T11:07:32.487Z,28.80
2017-08-17T11:10:00.961Z,29.10
2017-08-17T11:12:29.547Z,29.40
2017-08-17T11:14:58.032Z,30.10
2017-08-17T11:17:26.277Z,30.60
2017-08-17T11:19:54.524Z,31.10
2017-08-17T11:22:23.245Z,31.10
2017-08-17T11:24:51.547Z,31.10
2017-08-17T11:27:19.845Z,31.10
2017-08-17T11:29:48.196Z,30.90
2017-08-17T11:32:16.567Z,31.10
2017-08-17T11:34:44.924Z,31.20
2017-08-17T11:37:13.167Z,30.90
2017-08-17T11:39:41.686Z,30.50
2017-08-17T11:42:10.088Z,31.40
2017-08-17T11:44:38.404Z,31.90
2017-08-17T11:47:06.669Z,31.70
2017-08-17T11:49:35.184Z,32.30
2017-08-17T11:52:03.477Z,32.60
2017-08-17T11:54:31.760Z,32.80
2017-08-17T11:57:00.928Z,33.10
2017-08-17T11:59:29.171Z,33.10
2017-08-17T12:01:57.412Z,32.40
2017-08-17T12:04:25.693Z,32.20
2017-08-17T12:06:54.012Z,32.70
2017-08-17T12:09:22.276Z,32.90
2017-08-17T12:11:50.594Z,33.00
2017-08-17T12:14:19.318Z,31.90
2017-08-17T12:16:47.751Z,31.90
2017-08-17T12:19:16.066Z,32.30
2017-08-17T12:21:44.320Z,32.80
2017-08-17T12:24:12.567Z,33.40
2017-08-17T12:26:40.818Z,33.70
2017-08-17T12:29:09.378Z,33.40
2017-08-17T12:31:37.623Z,33.30
2017-08-17T12:34:06.280Z,31.60
2017-08-17T12:36:34.639Z,31.60
2017-08-17T12:39:03.310Z,30.10
2017-08-17T12:41:32.092Z,30.20
2017-08-17T12:44:01.451Z,30.40
2017-08-17T12:46:29.739Z,30.50
2017-08-17T12:48:58.116Z,30.60
2017-08-17T12:51:27.115Z,30.00
2017-08-17T12:53:55.514Z,29.70
2017-08-17T12:56:23.942Z,29.50
2017-08-17T12:58:52.600Z,29.60
2017-08-17T13:01:21.248Z,29.60
2017-08-17T13:03:49.624Z,29.60
2017-08-17T13:06:18.481Z,29.40
2017-08-17T13:08:47.013Z,29.40
2017-08-17T13:11:15.247Z,29.30
2017-08-17T13:13:43.643Z,29.30
2017-08-17T13:16:12.064Z,29.20
2017-08-17T13:18:40.768Z,29.50
2017-08-17T13:21:09.047Z,29.80
2017-08-17T13:23:37.831Z,30.10
2017-08-17T13:26:06.239Z,30.10
2017-08-17T13:28:34.838Z,30.20
2017-08-17T13:31:03.251Z,30.20
2017-08-17T13:33:31.877Z,30.40
2017-08-17T13:36:00.302Z,30.20
2017-08-17T13:38:28.747Z,30.60
2017-08-17T13:40:57.103Z,30.50
2017-08-17T13:43:25.679Z,30.50
2017-08-17T13:45:53.980Z,30.40
2017-08-17T13:48:22.228Z,30.50
2017-08-17T13:50:51.050Z,30.40
2017-08-17T13:53:19.413Z,30.30
2017-08-17T13:55:47.661Z,31.00
2017-08-17T13:58:16.207Z,30.40
2017-08-17T14:00:44.557Z,30.30
2017-08-17T14:03:13.048Z,30.10
2017-08-17T14:05:41.561Z,29.60
2017-08-17T14:08:09.949Z,29.30
2017-08-17T14:10:38.484Z,29.90
2017-08-17T14:13:06.798Z,30.60
2017-08-17T14:15:35.391Z,30.20
2017-08-17T14:18:03.648Z,29.60
2017-08-17T14:20:31.901Z,29.00
2017-08-17T14:23:00.276Z,29.10
2017-08-17T14:25:28.592Z,29.20
2017-08-17T14:27:56.879Z,29.10
2017-08-17T14:30:25.296Z,29.10
2017-08-17T14:32:53.864Z,29.20
2017-08-17T14:35:22.119Z,29.10
2017-08-17T14:37:51.301Z,28.90
2017-08-17T14:40:19.827Z,28.90
2017-08-17T14:42:48.352Z,29.00
2017-08-17T14:45:16.986Z,29.20
2017-08-17T14:47:47.985Z,29.20
2017-08-17T14:50:16.829Z,30.70
2017-08-17T14:52:45.453Z,30.70
2017-08-17T14:55:14.080Z,31.20
2017-08-17T14:57:42.790Z,31.50
2017-08-17T15:00:11.089Z,31.50
2017-08-17T15:02:39.744Z,31.60
2017-08-17T15:05:08.268Z,31.50
2017-08-17T15:07:36.591Z,31.50
2017-08-17T15:10:04.892Z,31.90
2017-08-17T15:12:33.278Z,32.10
2017-08-17T15:15:01.577Z,32.20
2017-08-17T15:17:30.045Z,32.60
2017-08-17T15:19:58.723Z,32.50
2017-08-17T15:22:27.191Z,31.70
2017-08-17T15:24:56.025Z,31.80
2017-08-17T15:27:24.312Z,31.80
2017-08-17T15:29:52.901Z,32.50
2017-08-17T15:32:21.158Z,32.30
2017-08-17T15:34:49.741Z,31.80
2017-08-17T15:37:18.028Z,31.50
2017-08-17T15:39:46.367Z,30.90
2017-08-17T15:42:15.288Z,29.40
2017-08-17T15:44:43.535Z,29.40
2017-08-17T15:47:11.779Z,29.20
2017-08-17T15:49:40.144Z,29.00
2017-08-17T15:52:08.390Z,29.00
2017-08-17T15:54:36.703Z,28.90
2017-08-17T15:57:05.056Z,29.10
2017-08-17T15:59:33.892Z,29.30
2017-08-17T16:02:02.357Z,30.00
2017-08-17T16:04:30.911Z,31.30
2017-08-17T16:06:59.160Z,31.70
2017-08-17T16:09:27.519Z,31.40
2017-08-17T16:11:56.215Z,31.00
2017-08-17T16:14:25.177Z,31.00
2017-08-17T16:16:53.521Z,30.50
2017-08-17T16:19:22.028Z,30.10
2017-08-17T16:21:50.646Z,29.70
2017-08-17T16:24:19.020Z,29.30
2017-08-17T16:26:48.273Z,29.20
2017-08-17T16:29:16.515Z,29.20
2017-08-17T16:31:44.765Z,28.90
2017-08-17T16:34:13.068Z,28.90
2017-08-17T16:36:41.301Z,28.60
2017-08-17T16:39:09.555Z,28.20
2017-08-17T16:41:37.836Z,28.00
2017-08-17T16:44:06.108Z,27.80
2017-08-17T16:46:34.367Z,27.60
2017-08-17T16:49:02.739Z,27.60
2017-08-17T16:51:31.012Z,27.40
2017-08-17T16:54:00.277Z,27.40
2017-08-17T16:56:28.547Z,27.40
2017-08-17T16:58:56.908Z,27.40
2017-08-17T17:01:25.611Z,27.30
2017-08-17T17:03:53.868Z,27.30
2017-08-17T17:06:22.114Z,27.40
2017-08-17T17:08:50.391Z,27.30
2017-08-17T17:11:18.639Z,27.30
2017-08-17T17:13:46.978Z,27.30
2017-08-17T17:16:15.204Z,27.20
2017-08-17T17:18:43.451Z,27.10
2017-08-17T17:21:11.770Z,27.10
2017-08-17T17:23:40.667Z,26.90
2017-08-17T17:26:10.291Z,26.80
2017-08-17T17:28:38.576Z,26.70
2017-08-17T17:31:06.820Z,26.70
2017-08-17T17:33:35.092Z,26.70
2017-08-17T17:36:03.375Z,26.60
2017-08-17T17:38:31.743Z,26.50
2017-08-17T17:40:59.975Z,26.40
2017-08-17T17:43:28.219Z,26.30
2017-08-17T17:45:56.599Z,26.30
2017-08-17T17:48:24.851Z,26.30
2017-08-17T17:50:53.131Z,26.20
2017-08-17T17:53:21.386Z,26.10
2017-08-17T17:55:49.629Z,26.20
2017-08-17T17:58:17.916Z,26.10
2017-08-17T18:00:46.168Z,26.10
2017-08-17T18:03:47.039Z,26.10
2017-08-17T18:06:15.292Z,26.10
2017-08-17T18:08:43.570Z,26.10
2017-08-17T18:11:11.844Z,26.00
2017-08-17T18:13:40.145Z,25.90
2017-08-17T18:16:08.401Z,25.80
2017-08-17T18:18:36.654Z,25.80
2017-08-17T18:21:04.928Z,25.80
2017-08-17T18:23:33.181Z,25.80
2017-08-17T18:26:01.456Z,25.80
2017-08-17T18:28:30.230Z,25.70
2017-08-17T18:30:58.564Z,25.60
2017-08-17T18:33:26.861Z,25.60
2017-08-17T18:35:55.113Z,25.50
2017-08-17T18:38:23.373Z,25.50
2017-08-17T18:40:51.656Z,25.40
2017-08-17T18:43:19.916Z,25.30
2017-08-17T18:45:48.199Z,25.20
2017-08-17T18:48:16.485Z,25.20
2017-08-17T18:50:44.746Z,25.10
2017-08-17T18:53:13.050Z,25.10
2017-08-17T18:55:41.306Z,24.90
2017-08-17T18:58:09.585Z,24.90
2017-08-17T19:00:37.828Z,24.80
2017-08-17T19:03:06.108Z,24.80
2017-08-17T19:05:34.352Z,24.80
2017-08-17T19:08:02.629Z,24.80
2017-08-17T19:10:31.016Z,24.70
2017-08-17T19:12:59.320Z,24.70
2017-08-17T19:15:27.667Z,24.80
2017-08-17T19:17:56.172Z,25.00
2017-08-17T19:20:25.514Z,25.10
2017-08-17T19:22:53.816Z,25.00
2017-08-17T19:25:22.075Z,25.10
2017-08-17T19:27:50.782Z,25.00
2017-08-17T19:30:19.112Z,25.00
2017-08-17T19:32:47.509Z,24.90
2017-08-17T19:35:16.117Z,24.90
2017-08-17T19:37:44.442Z,24.80
2017-08-17T19:40:12.990Z,24.80
2017-08-17T19:42:41.386Z,24.80
2017-08-17T19:45:09.638Z,24.80
2017-08-17T19:47:38.170Z,24.70
2017-08-17T19:50:06.449Z,24.60
2017-08-17T19:52:34.792Z,24.60
2017-08-17T19:55:03.080Z,24.60
2017-08-17T19:57:31.336Z,24.40
2017-08-17T20:00:00.101Z,24.30
2017-08-17T20:02:28.468Z,24.30
2017-08-17T20:04:56.730Z,24.10
2017-08-17T20:07:26.089Z,24.10
2017-08-17T20:09:54.946Z,24.00
2017-08-17T20:12:26.200Z,23.90
2017-08-17T20:14:54.640Z,24.00
2017-08-17T20:17:22.900Z,24.00
2017-08-17T20:19:51.790Z,23.90
2017-08-17T20:22:20.068Z,23.70
2017-08-17T20:24:48.454Z,23.70
2017-08-17T20:27:16.724Z,23.70
2017-08-17T20:29:45.040Z,23.60
2017-08-17T20:32:13.801Z,23.60
2017-08-17T20:34:42.105Z,23.60
2017-08-17T20:37:10.435Z,23.60
2017-08-17T20:39:39.115Z,23.50
2017-08-17T20:42:08.264Z,23.40
2017-08-17T20:44:36.511Z,23.40
2017-08-17T20:47:04.767Z,23.40
2017-08-17T20:49:33.095Z,23.30
2017-08-17T20:52:01.772Z,23.20
2017-08-17T20:54:30.118Z,23.10
2017-08-17T20:56:58.982Z,23.10
2017-08-17T20:59:27.649Z,23.10
2017-08-17T21:01:56.874Z,23.10
2017-08-17T21:04:25.569Z,23.00
2017-08-17T21:06:53.929Z,22.90
2017-08-17T21:09:24.636Z,22.80
2017-08-17T21:11:53.720Z,22.80
2017-08-17T21:14:22.040Z,22.80
2017-08-17T21:16:50.526Z,22.80
2017-08-17T21:19:18.973Z,22.70
2017-08-17T21:21:47.401Z,22.70
2017-08-17T21:24:15.665Z,22.60
2017-08-17T21:26:44.258Z,22.50
2017-08-17T21:29:12.784Z,22.50
2017-08-17T21:31:41.310Z,22.50
2017-08-17T21:34:09.611Z,22.40
2017-08-17T21:36:40.845Z,22.40
2017-08-17T21:39:10.603Z,22.40
2017-08-17T21:41:38.872Z,22.40
2017-08-17T21:44:07.909Z,22.30
2017-08-17T21:46:36.180Z,22.30
2017-08-17T21:49:04.639Z,22.30
2017-08-17T21:51:33.080Z,22.20
2017-08-17T21:54:01.408Z,22.20
2017-08-17T21:56:29.700Z,22.20
2017-08-17T21:58:57.973Z,22.20
2017-08-17T22:01:26.229Z,22.10
2017-08-17T22:03:54.612Z,22.10
2017-08-17T22:06:22.987Z,22.10
2017-08-17T22:08:51.339Z,22.20
2017-08-17T22:11:19.662Z,22.20
2017-08-17T22:13:48.041Z,22.20
2017-08-17T22:16:16.311Z,22.20
2017-08-17T22:18:44.756Z,22.10
2017-08-17T22:21:13.185Z,22.10
2017-08-17T22:23:41.705Z,22.10
2017-08-17T22:26:10.015Z,22.10
2017-08-17T22:28:38.314Z,22.00
2017-08-17T22:31:06.596Z,22.00
2017-08-17T22:33:34.975Z,21.90
2017-08-17T22:36:03.264Z,21.90
2017-08-17T22:38:31.570Z,21.90
2017-08-17T22:40:59.925Z,21.80
2017-08-17T22:43:28.272Z,21.80
2017-08-17T22:45:56.863Z,21.80
2017-08-17T22:48:25.133Z,21.70
2017-08-17T22:50:53.765Z,21.70
2017-08-17T22:53:22.113Z,21.70
2017-08-17T22:55:50.493Z,21.70
2017-08-17T22:58:18.740Z,21.60
2017-08-17T23:00:47.002Z,21.60
2017-08-17T23:03:15.266Z,21.60
2017-08-17T23:05:43.630Z,21.60
2017-08-17T23:08:11.880Z,21.60
2017-08-17T23:10:40.160Z,21.60
2017-08-17T23:13:08.428Z,21.60
2017-08-17T23:15:36.689Z,21.60
2017-08-17T23:18:05.055Z,21.50
2017-08-17T23:20:33.605Z,21.50
2017-08-17T23:23:01.945Z,21.50
2017-08-17T23:25:30.240Z,21.50
2017-08-17T23:27:58.500Z,21.40
2017-08-17T23:30:27.119Z,21.40
2017-08-17T23:32:55.388Z,21.40
2017-08-17T23:35:23.644Z,21.30
2017-08-17T23:37:52.016Z,21.30
2017-08-17T23:40:20.580Z,21.20
2017-08-17T23:42:48.870Z,21.20
2017-08-17T23:45:17.192Z,21.20
2017-08-17T23:47:45.669Z,21.20
2017-08-17T23:50:14.060Z,21.20
2017-08-17T23:52:42.415Z,21.20
2017-08-17T23:55:10.959Z,21.10
2017-08-17T23:57:39.294Z,21.10
